West Springfield, Pennsylvania
Current Conditions -  °F | °C
As of 4:53 AM on Sunday 26 Oct 2014 (Local Time) from KHZY Reporting Station
Clear Clear  
Wind Chill: 50°   Ceiling: Unl
Heat Index: 50°   Visibility: 10mi
Dew Point: 38°   Wind: 6mph
Humidity: 63%   Direction: 310°NW
Pressure: 29.8"   Gusts: NA
Location:  41.95°N, 80.47°W
Report Text: KHZY 260853Z AUTO 31005KT 10SM CLR 10/03 A2980 RMK AO2 SLP088 T01000033 53008
Loading
Personal Weather Stations






























Interactive Weather Map
Tropical Storm Tracking
New forecast layout! Learn more

10-Day Weather Forecast

Advertisements
Track Severe Weather on mobile